createdAt,value
2023-01-29T00:00:00.422Z,88.47
2023-01-29T00:03:40.315Z,88.37
2023-01-29T00:07:01.383Z,88.32
2023-01-29T00:09:52.651Z,88.71
2023-01-29T00:12:20.673Z,90.65
2023-01-29T00:14:49.683Z,90.81
2023-01-29T00:17:20.246Z,90.74
2023-01-29T00:19:48.282Z,90.94
2023-01-29T00:22:16.195Z,91.73
2023-01-29T00:24:44.414Z,91.55
2023-01-29T00:27:12.293Z,91.43
2023-01-29T00:29:43.518Z,91.45
2023-01-29T00:32:11.507Z,90.70
2023-01-29T00:34:39.684Z,90.92
2023-01-29T00:37:08.838Z,90.71
2023-01-29T00:39:47.733Z,90.17
2023-01-29T00:42:32.265Z,90.10
2023-01-29T00:45:00.785Z,90.22
2023-01-29T00:47:33.229Z,89.61
2023-01-29T00:50:03.292Z,89.60
2023-01-29T00:52:31.203Z,89.64
2023-01-29T00:55:00.615Z,89.32
2023-01-29T00:57:31.849Z,89.32
2023-01-29T00:59:59.837Z,89.12
2023-01-29T01:02:43.509Z,89.61
2023-01-29T01:05:18.414Z,89.71
2023-01-29T01:07:49.093Z,89.74
2023-01-29T01:10:20.901Z,89.55
2023-01-29T01:13:22.400Z,89.65
2023-01-29T01:17:03.282Z,89.97
2023-01-29T01:20:49.372Z,89.61
2023-01-29T01:24:40.302Z,89.56
2023-01-29T01:28:44.285Z,89.31
2023-01-29T01:35:53.141Z,89.13
2023-01-29T01:43:06.398Z,88.97
2023-01-29T01:45:57.418Z,88.70
2023-01-29T01:48:27.685Z,88.82
2023-01-29T01:51:03.410Z,88.67
2023-01-29T01:53:39.205Z,88.79
2023-01-29T01:56:12.817Z,88.58
2023-01-29T01:58:50.534Z,88.51
2023-01-29T02:01:21.378Z,88.48
2023-01-29T02:04:07.404Z,88.38
2023-01-29T02:06:47.498Z,88.61
2023-01-29T02:09:36.086Z,88.45
2023-01-29T02:12:07.711Z,88.04
2023-01-29T02:14:40.755Z,87.91
2023-01-29T02:17:12.055Z,87.60
2023-01-29T02:19:58.568Z,87.65
2023-01-29T02:22:47.255Z,87.12
2023-01-29T02:25:39.322Z,87.23
2023-01-29T02:28:18.859Z,87.40
2023-01-29T02:31:12.873Z,87.16
2023-01-29T02:34:06.951Z,86.92
2023-01-29T02:36:50.584Z,87.56
2023-01-29T02:39:42.346Z,87.31
2023-01-29T02:42:27.899Z,87.24
2023-01-29T02:45:06.569Z,87.48
2023-01-29T02:47:45.744Z,87.55
2023-01-29T02:50:21.182Z,88.68
2023-01-29T02:53:09.534Z,88.56
2023-01-29T02:55:49.286Z,89.15
2023-01-29T02:58:33.951Z,89.01
2023-01-29T03:01:09.949Z,90.08
2023-01-29T03:03:43.509Z,90.03
2023-01-29T03:06:22.319Z,90.39
2023-01-29T03:08:56.764Z,90.74
2023-01-29T03:11:27.640Z,90.31
2023-01-29T03:14:03.213Z,89.95
2023-01-29T03:16:37.308Z,89.94
2023-01-29T03:19:14.228Z,89.35
2023-01-29T03:21:55.042Z,88.72
2023-01-29T03:25:03.534Z,88.73
2023-01-29T03:27:52.793Z,89.06
2023-01-29T03:30:33.061Z,89.20
2023-01-29T03:33:12.648Z,89.54
2023-01-29T03:35:49.558Z,89.45
2023-01-29T03:38:18.056Z,89.25
2023-01-29T03:40:59.766Z,89.10
2023-01-29T03:43:39.853Z,89.13
2023-01-29T03:46:19.210Z,89.05
2023-01-29T03:49:00.411Z,88.44
2023-01-29T03:51:46.821Z,87.88
2023-01-29T03:54:26.412Z,87.95
2023-01-29T03:57:03.200Z,87.94
2023-01-29T03:59:41.548Z,87.93
2023-01-29T04:02:32.460Z,88.09
2023-01-29T04:05:10.024Z,88.60
2023-01-29T04:07:47.557Z,88.97
2023-01-29T04:10:21.414Z,88.89
2023-01-29T04:12:56.910Z,88.52
2023-01-29T04:15:28.962Z,89.45
2023-01-29T04:17:58.715Z,88.63
2023-01-29T04:20:35.964Z,88.08
2023-01-29T04:23:07.424Z,88.28
2023-01-29T04:25:44.813Z,88.03
2023-01-29T04:28:23.427Z,87.85
2023-01-29T04:30:58.838Z,87.81
2023-01-29T04:34:06.926Z,87.73
2023-01-29T04:37:09.891Z,87.68
2023-01-29T04:39:49.313Z,87.59
2023-01-29T04:42:31.161Z,87.40
2023-01-29T04:45:11.985Z,87.24
2023-01-29T04:47:56.784Z,87.01
2023-01-29T04:50:44.952Z,86.97
2023-01-29T04:53:47.926Z,86.93
2023-01-29T04:56:43.744Z,86.61
2023-01-29T04:59:38.671Z,86.61
2023-01-29T05:02:12.543Z,86.35
2023-01-29T05:04:52.005Z,86.35
2023-01-29T05:07:22.392Z,86.19
2023-01-29T05:09:53.639Z,85.95
2023-01-29T05:12:25.718Z,85.71
2023-01-29T05:14:55.978Z,85.74
2023-01-29T05:17:25.719Z,85.65
2023-01-29T05:19:57.643Z,85.65
2023-01-29T05:22:36.715Z,85.91
2023-01-29T05:25:45.330Z,85.75
2023-01-29T05:28:17.269Z,85.80
2023-01-29T05:30:52.673Z,85.88
2023-01-29T05:33:39.265Z,85.77
2023-01-29T05:36:39.479Z,85.89
2023-01-29T05:39:28.990Z,85.82
2023-01-29T05:42:08.836Z,85.67
2023-01-29T05:45:25.148Z,85.90
2023-01-29T05:47:58.012Z,85.45
2023-01-29T05:50:43.197Z,84.51
2023-01-29T05:53:26.381Z,84.90
2023-01-29T05:56:01.420Z,85.15
2023-01-29T05:58:46.778Z,84.98
2023-01-29T06:01:55.743Z,84.96
2023-01-29T06:04:45.363Z,84.81
2023-01-29T06:07:35.727Z,84.74
2023-01-29T06:10:18.442Z,84.31
2023-01-29T06:12:59.993Z,84.07
2023-01-29T06:15:42.948Z,83.94
2023-01-29T06:18:14.672Z,84.12
2023-01-29T06:28:48.327Z,84.10
2023-01-29T06:35:18.308Z,83.98
2023-01-29T06:39:32.328Z,83.23
2023-01-29T06:43:32.322Z,82.47
2023-01-29T06:46:56.278Z,82.70
2023-01-29T06:50:54.445Z,83.05
2023-01-29T06:54:50.292Z,82.87
2023-01-29T06:58:26.382Z,82.96
2023-01-29T07:01:48.409Z,83.10
2023-01-29T07:05:43.324Z,83.21
2023-01-29T07:09:31.316Z,83.41
2023-01-29T07:13:05.282Z,83.20
2023-01-29T07:16:42.353Z,82.64
2023-01-29T07:20:08.573Z,82.44
2023-01-29T07:23:47.335Z,83.01
2023-01-29T07:27:29.397Z,82.84
2023-01-29T07:31:06.359Z,82.07
2023-01-29T07:34:51.258Z,81.95
2023-01-29T07:38:49.308Z,81.99
2023-01-29T07:42:30.323Z,81.09
2023-01-29T07:46:20.302Z,81.44
2023-01-29T07:50:09.593Z,81.34
2023-01-29T07:53:42.341Z,81.31
2023-01-29T07:57:09.377Z,80.54
2023-01-29T08:01:09.447Z,80.85
2023-01-29T08:04:58.252Z,81.18
2023-01-29T08:08:49.331Z,80.86
2023-01-29T08:12:39.291Z,81.14
2023-01-29T08:16:28.383Z,79.78
2023-01-29T08:19:45.251Z,78.86
2023-01-29T08:23:22.272Z,78.79
2023-01-29T08:27:02.270Z,78.66
2023-01-29T08:30:36.440Z,78.16
2023-01-29T08:34:13.277Z,78.39
2023-01-29T08:37:58.936Z,78.30
2023-01-29T08:45:11.262Z,78.42
2023-01-29T08:48:58.334Z,78.57
2023-01-29T08:52:48.318Z,78.52
2023-01-29T08:56:17.360Z,78.43
2023-01-29T08:59:54.289Z,78.57
2023-01-29T09:03:29.373Z,78.73
2023-01-29T09:07:38.267Z,78.43
2023-01-29T09:11:15.308Z,77.95
2023-01-29T09:14:37.299Z,77.59
2023-01-29T09:18:06.318Z,76.36
2023-01-29T09:21:22.298Z,75.43
2023-01-29T09:24:55.355Z,75.53
2023-01-29T09:28:30.331Z,75.58
2023-01-29T09:31:32.522Z,76.32
2023-01-29T09:35:12.318Z,76.16
2023-01-29T09:45:57.069Z,75.90
2023-01-29T09:49:26.442Z,75.78
2023-01-29T09:52:51.272Z,75.88
2023-01-29T09:56:11.282Z,75.79
2023-01-29T09:59:41.283Z,75.90
2023-01-29T10:03:12.268Z,75.53
2023-01-29T10:06:34.168Z,75.38
2023-01-29T10:13:08.273Z,74.83
2023-01-29T10:16:25.256Z,74.96
2023-01-29T10:19:46.351Z,74.48
2023-01-29T10:23:19.311Z,74.35
2023-01-29T10:26:49.375Z,74.29
2023-01-29T10:30:20.360Z,74.24
2023-01-29T10:33:49.005Z,74.24
2023-01-29T10:37:09.379Z,73.69
2023-01-29T10:40:35.353Z,72.91
2023-01-29T10:44:10.285Z,73.74
2023-01-29T10:47:23.310Z,73.83
2023-01-29T10:50:40.318Z,73.99
2023-01-29T10:53:53.254Z,74.40
2023-01-29T10:57:15.337Z,74.97
2023-01-29T11:01:03.295Z,74.69
2023-01-29T11:04:19.158Z,75.04
2023-01-29T11:07:32.280Z,75.79
2023-01-29T11:10:38.293Z,76.29
2023-01-29T11:14:05.304Z,76.79
2023-01-29T11:17:18.378Z,77.41
2023-01-29T11:20:55.269Z,77.31
2023-01-29T11:24:19.327Z,77.32
2023-01-29T11:27:34.281Z,77.41
2023-01-29T11:31:03.361Z,77.86
2023-01-29T11:34:24.208Z,77.26
2023-01-29T11:37:26.312Z,77.66
2023-01-29T11:40:40.287Z,78.86
2023-01-29T11:44:23.112Z,78.85
2023-01-29T11:47:35.266Z,78.53
2023-01-29T11:50:45.565Z,78.12
2023-01-29T11:54:09.309Z,77.11
2023-01-29T11:57:47.772Z,75.47
2023-01-29T12:01:01.254Z,75.13
2023-01-29T12:04:49.346Z,74.57
2023-01-29T12:08:02.233Z,74.83
2023-01-29T12:11:14.329Z,74.79
2023-01-29T12:14:08.312Z,73.80
2023-01-29T12:17:23.303Z,74.30
2023-01-29T12:21:02.386Z,74.70
2023-01-29T12:28:14.319Z,74.09
2023-01-29T12:31:46.354Z,73.04
2023-01-29T12:35:03.312Z,72.18
2023-01-29T12:38:32.278Z,72.16
2023-01-29T12:41:48.282Z,72.71
2023-01-29T12:45:04.265Z,72.75
2023-01-29T12:51:47.316Z,73.68
2023-01-29T12:55:09.007Z,73.84
2023-01-29T12:58:29.307Z,73.82
2023-01-29T13:01:27.262Z,74.13
2023-01-29T13:05:02.699Z,74.33
2023-01-29T13:08:46.634Z,74.59
2023-01-29T13:15:55.318Z,75.23
2023-01-29T13:22:43.547Z,74.46
2023-01-29T13:25:32.401Z,74.63
2023-01-29T13:28:35.299Z,74.41
2023-01-29T13:32:06.246Z,74.49
2023-01-29T13:35:17.731Z,75.11
2023-01-29T13:38:29.290Z,74.96
2023-01-29T13:41:54.015Z,75.05
2023-01-29T13:44:58.317Z,75.55
2023-01-29T13:48:26.209Z,76.27
2023-01-29T13:51:50.287Z,76.00
2023-01-29T13:55:03.232Z,76.11
2023-01-29T14:05:20.287Z,75.60
2023-01-29T14:08:32.212Z,75.37
2023-01-29T14:11:37.616Z,74.34
2023-01-29T14:14:39.315Z,74.74
2023-01-29T14:17:50.303Z,74.96
2023-01-29T14:21:02.306Z,74.69
2023-01-29T14:24:35.724Z,74.99
2023-01-29T14:27:58.329Z,74.49
2023-01-29T14:31:56.953Z,74.42
2023-01-29T14:35:26.307Z,74.58
2023-01-29T14:38:57.264Z,74.33
2023-01-29T14:42:35.254Z,74.12
2023-01-29T14:45:52.242Z,74.38
2023-01-29T14:49:16.432Z,74.85
2023-01-29T14:52:52.278Z,74.89
2023-01-29T14:56:02.330Z,74.81
2023-01-29T14:59:20.280Z,74.95
2023-01-29T15:02:27.375Z,75.59
2023-01-29T15:05:54.331Z,75.62
2023-01-29T15:09:36.472Z,75.72
2023-01-29T15:16:38.299Z,76.19
2023-01-29T15:20:05.256Z,76.48
2023-01-29T15:23:25.331Z,76.51
2023-01-29T15:27:15.294Z,76.33
2023-01-29T15:30:24.350Z,76.19
2023-01-29T15:36:53.589Z,76.60
2023-01-29T15:40:22.291Z,76.51
2023-01-29T15:43:56.298Z,76.17
2023-01-29T15:50:28.312Z,76.73
2023-01-29T15:53:51.309Z,76.41
2023-01-29T15:57:12.338Z,76.56
2023-01-29T16:00:43.290Z,76.66
2023-01-29T16:07:10.303Z,76.24
2023-01-29T16:10:16.326Z,76.22
2023-01-29T16:13:48.298Z,76.09
2023-01-29T16:17:30.272Z,75.81
2023-01-29T16:24:54.335Z,76.27
2023-01-29T16:35:32.332Z,76.54
2023-01-29T16:46:02.304Z,76.44
2023-01-29T16:49:12.316Z,76.05
2023-01-29T16:53:04.295Z,76.33
2023-01-29T17:07:35.770Z,75.55
2023-01-29T17:10:56.780Z,75.93
2023-01-29T17:14:25.833Z,75.79
2023-01-29T17:17:38.825Z,75.72
2023-01-29T17:21:15.820Z,75.95
2023-01-29T17:24:38.782Z,75.94
2023-01-29T17:28:22.839Z,76.19
2023-01-29T17:31:51.862Z,76.37
2023-01-29T17:35:08.855Z,76.36
2023-01-29T17:38:26.359Z,75.98
2023-01-29T17:41:25.879Z,75.93
2023-01-29T17:55:12.805Z,75.82
2023-01-29T17:58:34.852Z,75.58
2023-01-29T18:01:52.790Z,75.68
2023-01-29T18:05:05.808Z,75.76
2023-01-29T18:08:41.835Z,76.00
2023-01-29T18:11:39.861Z,75.89
2023-01-29T18:15:36.875Z,75.68
2023-01-29T18:22:13.852Z,75.89
2023-01-29T18:29:14.852Z,76.37
2023-01-29T18:32:34.775Z,76.05
2023-01-29T18:35:49.837Z,76.48
2023-01-29T18:39:13.783Z,76.30
2023-01-29T18:42:43.868Z,76.22
2023-01-29T18:46:14.649Z,76.14
2023-01-29T18:49:50.880Z,75.93
2023-01-29T18:53:39.787Z,75.86
2023-01-29T18:57:11.552Z,76.20
2023-01-29T19:00:36.892Z,76.02
2023-01-29T19:03:48.809Z,76.18
2023-01-29T19:06:48.844Z,75.95
2023-01-29T19:10:39.242Z,76.56
2023-01-29T19:14:20.939Z,76.48
2023-01-29T19:18:31.108Z,76.52
2023-01-29T19:21:55.888Z,76.13
2023-01-29T19:25:46.822Z,76.09
2023-01-29T19:28:51.122Z,75.75
2023-01-29T19:32:16.064Z,75.50
2023-01-29T19:34:52.029Z,75.41
2023-01-29T19:37:50.796Z,75.46
2023-01-29T19:41:19.784Z,75.41
2023-01-29T19:44:49.822Z,75.39
2023-01-29T19:51:38.778Z,75.22
2023-01-29T19:54:39.914Z,74.97
2023-01-29T19:58:09.737Z,75.06
2023-01-29T20:01:23.830Z,75.59
2023-01-29T20:04:47.763Z,75.37
2023-01-29T20:08:11.849Z,75.45
2023-01-29T20:11:52.792Z,75.25
2023-01-29T20:15:30.826Z,74.53
2023-01-29T20:18:55.813Z,74.57
2023-01-29T20:22:32.064Z,74.69
2023-01-29T20:26:11.913Z,75.17
2023-01-29T20:29:30.790Z,75.99
2023-01-29T20:32:52.790Z,75.70
2023-01-29T20:36:12.799Z,76.22
2023-01-29T20:39:34.798Z,76.04
2023-01-29T20:43:06.801Z,75.67
2023-01-29T20:46:26.772Z,76.63
2023-01-29T20:49:31.572Z,76.08
2023-01-29T20:52:05.033Z,75.50
2023-01-29T20:54:39.684Z,75.14
2023-01-29T20:57:16.911Z,74.96
2023-01-29T20:59:48.658Z,75.00
2023-01-29T21:02:44.867Z,74.03
2023-01-29T21:05:23.465Z,73.76
2023-01-29T21:08:13.167Z,74.02
2023-01-29T21:11:02.135Z,73.86
2023-01-29T21:13:58.528Z,72.48
2023-01-29T21:16:36.031Z,72.41
2023-01-29T21:19:04.575Z,72.89
2023-01-29T21:22:08.261Z,72.05
2023-01-29T21:24:59.213Z,71.69
2023-01-29T21:27:51.230Z,71.69
2023-01-29T21:30:40.771Z,71.68
2023-01-29T21:33:29.605Z,71.69
2023-01-29T21:36:40.047Z,71.39
2023-01-29T21:39:36.269Z,71.10
2023-01-29T21:42:55.811Z,71.17
2023-01-29T21:46:05.131Z,70.34
2023-01-29T21:48:43.472Z,69.34
2023-01-29T21:51:12.310Z,69.98
2023-01-29T21:53:44.646Z,70.21
2023-01-29T21:56:19.794Z,69.28
2023-01-29T21:58:49.589Z,69.73
2023-01-29T22:01:37.549Z,69.43
2023-01-29T22:04:09.053Z,69.82
2023-01-29T22:06:38.808Z,70.15
2023-01-29T22:09:10.754Z,69.83
2023-01-29T22:11:41.523Z,69.65
2023-01-29T22:14:09.757Z,69.06
2023-01-29T22:16:38.548Z,69.63
2023-01-29T22:19:07.017Z,69.41
2023-01-29T22:21:36.012Z,69.70
2023-01-29T22:24:04.596Z,69.45
2023-01-29T22:26:40.077Z,69.18
2023-01-29T22:29:08.370Z,69.29
2023-01-29T22:31:40.692Z,69.34
2023-01-29T22:34:14.061Z,69.16
2023-01-29T22:36:42.204Z,69.19
2023-01-29T22:39:12.015Z,69.29
2023-01-29T22:41:48.275Z,69.47
2023-01-29T22:44:18.442Z,69.21
2023-01-29T22:47:07.855Z,69.25
2023-01-29T22:50:05.844Z,69.60
2023-01-29T22:52:54.378Z,69.42
2023-01-29T22:55:23.875Z,69.80
2023-01-29T22:57:53.371Z,69.74
2023-01-29T23:00:23.149Z,69.75
2023-01-29T23:03:01.491Z,69.54
2023-01-29T23:05:34.124Z,70.00
2023-01-29T23:08:17.988Z,69.92
2023-01-29T23:10:50.713Z,69.85
2023-01-29T23:13:40.117Z,69.64
2023-01-29T23:16:12.372Z,69.83
2023-01-29T23:18:41.368Z,69.33
2023-01-29T23:21:10.586Z,69.72
2023-01-29T23:23:48.552Z,69.62
2023-01-29T23:26:32.243Z,69.83
2023-01-29T23:29:52.085Z,69.50
2023-01-29T23:33:19.101Z,69.55
2023-01-29T23:37:24.799Z,69.48
2023-01-29T23:41:38.129Z,69.60
2023-01-29T23:45:39.770Z,69.22
2023-01-29T23:49:35.727Z,69.78
2023-01-29T23:53:29.524Z,69.49
2023-01-29T23:56:59.760Z,69.35
